createdAt,value
2023-01-01T00:00:25.406Z,18.33
2023-01-01T00:02:34.848Z,10.43
2023-01-01T00:04:42.771Z,8.23
2023-01-01T00:06:46.241Z,9.45
2023-01-01T00:08:49.252Z,8.52
2023-01-01T00:10:51.522Z,14.02
2023-01-01T00:12:58.244Z,9.88
2023-01-01T00:15:03.569Z,11.75
2023-01-01T00:17:06.574Z,9.30
2023-01-01T00:19:09.602Z,7.90
2023-01-01T00:21:15.114Z,9.68
2023-01-01T00:23:18.034Z,6.45
2023-01-01T00:25:22.347Z,7.15
2023-01-01T00:27:25.466Z,5.88
2023-01-01T00:29:29.750Z,5.57
2023-01-01T00:31:33.101Z,5.95
2023-01-01T00:33:36.215Z,5.95
2023-01-01T00:35:39.074Z,4.85
2023-01-01T00:37:46.602Z,5.50
2023-01-01T00:39:49.727Z,4.65
2023-01-01T00:41:53.028Z,5.38
2023-01-01T00:43:56.156Z,5.75
2023-01-01T00:46:00.689Z,5.25
2023-01-01T00:48:03.671Z,5.38
2023-01-01T00:50:08.773Z,6.20
2023-01-01T00:52:12.866Z,6.15
2023-01-01T00:54:15.869Z,5.43
2023-01-01T00:56:18.922Z,6.05
2023-01-01T00:58:21.856Z,5.85
2023-01-01T01:00:24.957Z,6.07
2023-01-01T01:02:29.573Z,5.07
2023-01-01T01:04:32.755Z,4.78
2023-01-01T01:06:36.057Z,5.45
2023-01-01T01:08:41.630Z,6.60
2023-01-01T01:10:44.562Z,4.97
2023-01-01T01:12:47.578Z,5.80
2023-01-01T01:14:50.586Z,4.68
2023-01-01T01:16:53.733Z,5.20
2023-01-01T01:19:00.443Z,4.95
2023-01-01T01:21:03.440Z,5.10
2023-01-01T01:23:06.365Z,5.07
2023-01-01T01:25:09.960Z,4.32
2023-01-01T01:27:13.901Z,4.85
2023-01-01T01:29:19.269Z,4.68
2023-01-01T01:31:23.850Z,4.68
2023-01-01T01:33:28.549Z,5.22
2023-01-01T01:35:33.137Z,4.50
2023-01-01T01:37:36.362Z,5.25
2023-01-01T01:39:39.226Z,4.53
2023-01-01T01:41:42.354Z,4.38
2023-01-01T01:43:53.276Z,4.50
2023-01-01T01:45:57.823Z,5.30
2023-01-01T01:48:01.247Z,4.15
2023-01-01T01:50:09.664Z,4.53
2023-01-01T01:52:16.179Z,3.90
2023-01-01T01:54:21.802Z,3.97
2023-01-01T01:56:28.214Z,3.33
2023-01-01T01:58:32.720Z,3.17
2023-01-01T02:00:35.721Z,3.45
2023-01-01T02:02:44.032Z,3.22
2023-01-01T02:04:47.392Z,2.70
2023-01-01T02:06:51.557Z,3.22
2023-01-01T02:08:57.934Z,2.70
2023-01-01T02:11:01.158Z,3.25
2023-01-01T02:13:04.144Z,2.53
2023-01-01T02:15:09.470Z,2.90
2023-01-01T02:17:17.239Z,2.90
2023-01-01T02:19:30.118Z,2.50
2023-01-01T02:21:36.157Z,2.50
2023-01-01T02:24:01.688Z,3.00
2023-01-01T02:26:43.764Z,3.15
2023-01-01T02:28:55.386Z,2.33
2023-01-01T02:31:00.308Z,1.80
2023-01-01T02:33:04.492Z,2.22
2023-01-01T02:35:25.482Z,2.13
2023-01-01T02:37:30.096Z,2.22
2023-01-01T02:39:35.790Z,2.35
2023-01-01T02:41:44.449Z,2.25
2023-01-01T02:43:47.863Z,2.38
2023-01-01T02:45:52.468Z,2.28
2023-01-01T02:47:55.699Z,2.47
2023-01-01T02:50:03.554Z,2.08
2023-01-01T02:52:12.584Z,1.70
2023-01-01T02:54:25.169Z,2.38
2023-01-01T02:56:35.390Z,2.67
2023-01-01T02:59:03.356Z,1.40
2023-01-01T03:01:14.624Z,1.60
2023-01-01T03:03:23.276Z,1.75
2023-01-01T03:05:36.289Z,1.50
2023-01-01T03:07:43.252Z,1.60
2023-01-01T03:09:52.440Z,1.38
2023-01-01T03:11:59.074Z,1.58
2023-01-01T03:14:06.848Z,1.98
2023-01-01T03:16:15.613Z,1.67
2023-01-01T03:18:22.383Z,1.52
2023-01-01T03:20:27.649Z,1.88
2023-01-01T03:22:34.801Z,1.42
2023-01-01T03:24:40.267Z,2.15
2023-01-01T03:26:45.520Z,1.58
2023-01-01T03:28:52.180Z,1.25
2023-01-01T03:30:57.942Z,1.48
2023-01-01T03:33:06.102Z,1.80
2023-01-01T03:35:09.848Z,1.80
2023-01-01T03:37:16.858Z,1.70
2023-01-01T03:39:22.340Z,1.83
2023-01-01T03:41:29.117Z,1.75
2023-01-01T03:43:38.122Z,1.92
2023-01-01T03:45:43.302Z,1.60
2023-01-01T03:47:46.618Z,1.67
2023-01-01T03:49:51.061Z,1.98
2023-01-01T03:52:17.254Z,1.67
2023-01-01T03:54:26.951Z,1.60
2023-01-01T03:56:37.601Z,1.70
2023-01-01T03:58:43.694Z,1.67
2023-01-01T04:00:48.753Z,1.92
2023-01-01T04:02:55.904Z,1.45
2023-01-01T04:05:01.143Z,1.83
2023-01-01T04:07:14.851Z,1.30
2023-01-01T04:09:22.779Z,2.28
2023-01-01T04:11:46.758Z,1.50
2023-01-01T04:13:49.952Z,1.50
2023-01-01T04:15:54.161Z,1.73
2023-01-01T04:17:57.103Z,1.50
2023-01-01T04:20:01.384Z,1.27
2023-01-01T04:22:05.618Z,1.45
2023-01-01T04:24:08.793Z,1.77
2023-01-01T04:26:14.577Z,1.65
2023-01-01T04:28:17.833Z,1.40
2023-01-01T04:30:21.193Z,1.15
2023-01-01T04:32:24.170Z,1.75
2023-01-01T04:34:27.202Z,1.73
2023-01-01T04:36:32.054Z,1.50
2023-01-01T04:38:35.435Z,1.10
2023-01-01T04:40:39.253Z,1.20
2023-01-01T04:42:43.156Z,1.42
2023-01-01T04:44:46.141Z,1.30
2023-01-01T04:46:49.035Z,1.83
2023-01-01T04:48:52.213Z,1.20
2023-01-01T04:50:56.667Z,1.15
2023-01-01T04:53:01.250Z,2.05
2023-01-01T04:55:04.142Z,1.77
2023-01-01T04:57:07.114Z,1.30
2023-01-01T04:59:10.611Z,1.30
2023-01-01T05:01:18.438Z,1.55
2023-01-01T05:03:21.584Z,1.38
2023-01-01T05:05:24.538Z,1.48
2023-01-01T05:07:27.510Z,1.65
2023-01-01T05:09:31.981Z,1.35
2023-01-01T05:11:35.361Z,1.50
2023-01-01T05:13:39.173Z,1.65
2023-01-01T05:15:42.873Z,1.40
2023-01-01T05:17:46.578Z,1.50
2023-01-01T05:19:49.520Z,1.58
2023-01-01T05:21:54.074Z,1.70
2023-01-01T05:24:00.127Z,1.75
2023-01-01T05:26:12.039Z,1.83
2023-01-01T05:28:15.076Z,1.65
2023-01-01T05:30:18.159Z,1.70
2023-01-01T05:32:20.992Z,1.65
2023-01-01T05:34:25.501Z,1.85
2023-01-01T05:36:30.132Z,1.73
2023-01-01T05:38:35.235Z,1.75
2023-01-01T05:40:39.760Z,1.40
2023-01-01T05:42:44.190Z,1.80
2023-01-01T05:44:47.159Z,1.52
2023-01-01T05:46:50.274Z,1.77
2023-01-01T05:48:55.187Z,1.45
2023-01-01T05:51:03.674Z,1.40
2023-01-01T05:53:06.676Z,1.75
2023-01-01T05:55:11.243Z,1.67
2023-01-01T05:57:14.467Z,2.17
2023-01-01T05:59:19.605Z,1.85
2023-01-01T06:01:25.553Z,1.30
2023-01-01T06:03:28.940Z,1.80
2023-01-01T06:05:32.462Z,1.80
2023-01-01T06:07:35.934Z,1.63
2023-01-01T06:09:38.835Z,2.22
2023-01-01T06:11:41.789Z,1.38
2023-01-01T06:13:44.824Z,2.08
2023-01-01T06:15:56.180Z,1.60
2023-01-01T06:17:59.843Z,1.45
2023-01-01T06:20:02.737Z,1.33
2023-01-01T06:22:05.945Z,1.30
2023-01-01T06:24:09.527Z,1.33
2023-01-01T06:26:13.966Z,1.58
2023-01-01T06:28:16.857Z,1.90
2023-01-01T06:30:21.693Z,1.70
2023-01-01T06:32:26.083Z,1.65
2023-01-01T06:34:30.329Z,1.75
2023-01-01T06:36:33.807Z,1.63
2023-01-01T06:38:38.261Z,1.90
2023-01-01T06:40:41.096Z,1.50
2023-01-01T06:42:44.157Z,1.60
2023-01-01T06:44:47.182Z,1.70
2023-01-01T06:46:50.448Z,1.38
2023-01-01T06:48:57.190Z,1.73
2023-01-01T06:51:07.104Z,1.80
2023-01-01T06:53:11.197Z,1.38
2023-01-01T06:55:14.106Z,1.60
2023-01-01T06:57:16.963Z,1.60
2023-01-01T06:59:20.258Z,1.67
2023-01-01T07:01:26.057Z,2.25
2023-01-01T07:03:29.365Z,1.50
2023-01-01T07:05:33.998Z,1.88
2023-01-01T07:07:38.965Z,1.77
2023-01-01T07:09:42.140Z,1.70
2023-01-01T07:11:45.001Z,1.55
2023-01-01T07:13:48.000Z,1.75
2023-01-01T07:15:50.960Z,2.00
2023-01-01T07:17:54.387Z,2.20
2023-01-01T07:19:57.469Z,1.45
2023-01-01T07:22:01.881Z,1.80
2023-01-01T07:24:07.868Z,2.05
2023-01-01T07:26:11.634Z,1.70
2023-01-01T07:28:14.872Z,1.75
2023-01-01T07:30:18.320Z,1.98
2023-01-01T07:32:22.509Z,1.45
2023-01-01T07:34:25.419Z,2.10
2023-01-01T07:36:28.519Z,1.63
2023-01-01T07:38:32.790Z,1.75
2023-01-01T07:40:35.936Z,1.60
2023-01-01T07:42:38.869Z,2.13
2023-01-01T07:44:42.013Z,1.13
2023-01-01T07:46:44.969Z,2.15
2023-01-01T07:48:48.037Z,1.90
2023-01-01T07:50:52.379Z,2.20
2023-01-01T07:52:55.354Z,1.70
2023-01-01T07:55:00.408Z,2.20
2023-01-01T07:57:04.237Z,1.63
2023-01-01T07:59:07.456Z,1.67
2023-01-01T08:01:12.088Z,1.52
2023-01-01T08:03:15.256Z,1.98
2023-01-01T08:05:24.305Z,1.65
2023-01-01T08:07:30.101Z,1.70
2023-01-01T08:09:33.172Z,2.20
2023-01-01T08:11:38.221Z,1.60
2023-01-01T08:13:41.177Z,1.90
2023-01-01T08:15:44.063Z,1.30
2023-01-01T08:17:47.542Z,1.70
2023-01-01T08:19:52.020Z,1.92
2023-01-01T08:21:55.053Z,1.42
2023-01-01T08:23:58.338Z,2.00
2023-01-01T08:26:02.305Z,1.70
2023-01-01T08:28:06.805Z,1.63
2023-01-01T08:30:12.237Z,2.20
2023-01-01T08:32:15.129Z,1.33
2023-01-01T08:34:18.765Z,1.98
2023-01-01T08:36:22.029Z,1.80
2023-01-01T08:38:25.201Z,2.00
2023-01-01T08:40:28.124Z,1.90
2023-01-01T08:42:31.078Z,2.28
2023-01-01T08:44:35.458Z,1.77
2023-01-01T08:46:38.491Z,1.92
2023-01-01T08:48:41.348Z,1.20
2023-01-01T08:50:44.352Z,1.60
2023-01-01T08:52:47.183Z,2.00
2023-01-01T08:54:50.868Z,2.60
2023-01-01T08:56:53.865Z,1.70
2023-01-01T08:59:03.536Z,1.73
2023-01-01T09:01:11.163Z,1.67
2023-01-01T09:03:14.313Z,1.60
2023-01-01T09:05:17.496Z,1.65
2023-01-01T09:07:20.595Z,2.08
2023-01-01T09:09:30.841Z,2.13
2023-01-01T09:11:34.482Z,2.10
2023-01-01T09:13:38.409Z,1.75
2023-01-01T09:15:42.727Z,1.63
2023-01-01T09:17:46.981Z,2.10
2023-01-01T09:19:49.869Z,2.00
2023-01-01T09:21:53.476Z,1.65
2023-01-01T09:23:56.757Z,2.05
2023-01-01T09:26:03.578Z,2.38
2023-01-01T09:28:07.833Z,1.70
2023-01-01T09:30:14.300Z,1.63
2023-01-01T09:32:18.689Z,1.73
2023-01-01T09:34:23.183Z,1.90
2023-01-01T09:36:29.758Z,1.70
2023-01-01T09:38:32.893Z,2.03
2023-01-01T09:40:49.323Z,1.50
2023-01-01T09:43:01.689Z,2.13
2023-01-01T09:45:16.756Z,1.77
2023-01-01T09:47:24.390Z,1.88
2023-01-01T09:49:33.320Z,1.85
2023-01-01T09:51:43.225Z,1.75
2023-01-01T09:53:53.881Z,1.73
2023-01-01T09:55:58.783Z,1.45
2023-01-01T09:58:02.845Z,2.00
2023-01-01T10:00:15.712Z,1.77
2023-01-01T10:02:34.059Z,2.17
2023-01-01T10:04:51.976Z,1.67
2023-01-01T10:07:03.486Z,1.60
2023-01-01T10:09:12.488Z,1.77
2023-01-01T10:11:22.015Z,1.45
2023-01-01T10:13:30.098Z,2.05
2023-01-01T10:15:36.486Z,2.17
2023-01-01T10:17:41.964Z,1.30
2023-01-01T10:19:49.415Z,1.83
2023-01-01T10:21:55.922Z,1.75
2023-01-01T10:24:01.914Z,2.35
2023-01-01T10:26:11.293Z,1.33
2023-01-01T10:28:19.933Z,1.70
2023-01-01T10:30:24.619Z,2.38
2023-01-01T10:32:29.919Z,2.28
2023-01-01T10:34:34.519Z,1.90
2023-01-01T10:36:39.072Z,2.22
2023-01-01T10:38:42.653Z,2.40
2023-01-01T10:40:46.970Z,2.40
2023-01-01T10:42:51.521Z,2.45
2023-01-01T10:44:54.569Z,1.77
2023-01-01T10:47:00.419Z,2.15
2023-01-01T10:49:10.682Z,1.70
2023-01-01T10:51:16.373Z,1.55
2023-01-01T10:53:31.918Z,1.92
2023-01-01T10:55:35.069Z,1.83
2023-01-01T10:57:40.609Z,2.22
2023-01-01T10:59:50.046Z,1.60
2023-01-01T11:02:13.637Z,1.80
2023-01-01T11:04:21.274Z,1.80
2023-01-01T11:06:25.998Z,1.70
2023-01-01T11:08:31.822Z,2.25
2023-01-01T11:10:34.992Z,2.08
2023-01-01T11:13:04.924Z,1.65
2023-01-01T11:15:03.557Z,1.95
2023-01-01T11:17:07.205Z,1.65
2023-01-01T11:19:18.900Z,1.98
2023-01-01T11:21:23.533Z,1.75
2023-01-01T11:23:33.169Z,2.08
2023-01-01T11:25:36.216Z,1.50
2023-01-01T11:27:39.118Z,1.65
2023-01-01T11:29:42.940Z,1.75
2023-01-01T11:31:47.351Z,1.77
2023-01-01T11:33:52.726Z,2.00
2023-01-01T11:35:56.883Z,2.40
2023-01-01T11:38:04.625Z,2.08
2023-01-01T11:40:19.046Z,1.95
2023-01-01T11:42:24.149Z,2.10
2023-01-01T11:44:35.646Z,2.33
2023-01-01T11:46:39.766Z,1.70
2023-01-01T11:48:44.632Z,2.70
2023-01-01T11:50:54.209Z,1.35
2023-01-01T11:52:59.498Z,2.47
2023-01-01T11:55:19.153Z,2.00
2023-01-01T11:57:24.546Z,1.67
2023-01-01T11:59:40.666Z,1.70
2023-01-01T12:01:47.146Z,1.83
2023-01-01T12:03:55.365Z,1.83
2023-01-01T12:06:04.134Z,1.95
2023-01-01T12:08:10.701Z,1.85
2023-01-01T12:10:20.425Z,1.80
2023-01-01T12:12:28.199Z,1.77
2023-01-01T12:14:36.728Z,1.77
2023-01-01T12:16:46.319Z,2.35
2023-01-01T12:18:54.727Z,1.95
2023-01-01T12:21:01.955Z,1.88
2023-01-01T12:23:06.390Z,2.38
2023-01-01T12:25:13.559Z,1.85
2023-01-01T12:27:26.364Z,2.55
2023-01-01T12:29:55.251Z,1.80
2023-01-01T12:32:05.481Z,2.20
2023-01-01T12:34:14.728Z,2.55
2023-01-01T12:36:29.988Z,2.35
2023-01-01T12:39:17.242Z,2.20
2023-01-01T12:41:27.836Z,2.05
2023-01-01T12:43:38.111Z,1.88
2023-01-01T12:46:14.759Z,2.78
2023-01-01T12:48:41.229Z,2.03
2023-01-01T12:50:56.002Z,2.67
2023-01-01T12:53:04.880Z,1.95
2023-01-01T12:55:32.031Z,2.15
2023-01-01T12:57:39.057Z,1.83
2023-01-01T12:59:47.705Z,2.13
2023-01-01T13:01:53.203Z,1.95
2023-01-01T13:03:58.677Z,2.33
2023-01-01T13:06:02.813Z,1.80
2023-01-01T13:08:08.852Z,1.70
2023-01-01T13:10:19.637Z,2.45
2023-01-01T13:12:25.328Z,1.85
2023-01-01T13:14:28.562Z,1.95
2023-01-01T13:16:38.156Z,2.72
2023-01-01T13:18:41.406Z,2.05
2023-01-01T13:20:46.341Z,2.35
2023-01-01T13:22:49.342Z,2.17
2023-01-01T13:25:05.154Z,1.98
2023-01-01T13:27:10.890Z,1.90
2023-01-01T13:29:35.278Z,2.08
2023-01-01T13:32:08.196Z,2.22
2023-01-01T13:34:40.516Z,2.58
2023-01-01T13:36:43.679Z,2.17
2023-01-01T13:38:47.249Z,2.33
2023-01-01T13:40:52.982Z,1.88
2023-01-01T13:43:07.094Z,1.83
2023-01-01T13:45:36.588Z,2.15
2023-01-01T13:48:04.779Z,1.75
2023-01-01T13:50:16.478Z,1.60
2023-01-01T13:52:35.631Z,1.73
2023-01-01T13:55:26.233Z,2.35
2023-01-01T13:57:42.250Z,1.67
2023-01-01T13:59:52.863Z,2.30
2023-01-01T14:02:04.429Z,1.95
2023-01-01T14:04:16.183Z,2.08
2023-01-01T14:06:24.691Z,1.95
2023-01-01T14:08:32.559Z,2.13
2023-01-01T14:10:38.077Z,2.42
2023-01-01T14:12:41.097Z,2.63
2023-01-01T14:14:44.176Z,2.05
2023-01-01T14:16:47.460Z,1.80
2023-01-01T14:18:52.000Z,2.55
2023-01-01T14:20:56.293Z,2.28
2023-01-01T14:23:01.456Z,2.90
2023-01-01T14:25:09.404Z,2.13
2023-01-01T14:27:18.157Z,2.30
2023-01-01T14:29:25.702Z,2.25
2023-01-01T14:31:30.571Z,2.33
2023-01-01T14:33:35.155Z,2.00
2023-01-01T14:35:38.178Z,2.13
2023-01-01T14:37:43.048Z,2.65
2023-01-01T14:39:47.418Z,2.53
2023-01-01T14:41:50.392Z,2.30
2023-01-01T14:43:55.515Z,2.75
2023-01-01T14:45:58.752Z,2.38
2023-01-01T14:48:02.501Z,1.83
2023-01-01T14:50:14.084Z,2.47
2023-01-01T14:52:22.570Z,2.40
2023-01-01T14:54:32.423Z,3.20
2023-01-01T14:56:37.101Z,2.30
2023-01-01T14:58:42.004Z,2.10
2023-01-01T15:00:45.111Z,2.22
2023-01-01T15:02:48.161Z,1.88
2023-01-01T15:04:51.579Z,2.42
2023-01-01T15:06:57.998Z,2.15
2023-01-01T15:09:01.112Z,1.67
2023-01-01T15:11:08.329Z,1.67
2023-01-01T15:13:20.931Z,2.95
2023-01-01T15:15:44.973Z,1.90
2023-01-01T15:17:52.303Z,1.77
2023-01-01T15:20:05.296Z,2.30
2023-01-01T15:22:12.541Z,2.20
2023-01-01T15:24:19.557Z,2.40
2023-01-01T15:26:29.941Z,2.15
2023-01-01T15:28:34.433Z,1.70
2023-01-01T15:30:37.882Z,2.05
2023-01-01T15:32:43.839Z,2.38
2023-01-01T15:34:50.245Z,2.00
2023-01-01T15:36:54.261Z,2.35
2023-01-01T15:38:59.756Z,2.13
2023-01-01T15:41:34.992Z,2.08
2023-01-01T15:43:38.587Z,2.35
2023-01-01T15:45:45.120Z,2.08
2023-01-01T15:47:49.876Z,2.28
2023-01-01T15:50:08.953Z,2.90
2023-01-01T15:52:17.997Z,2.42
2023-01-01T15:54:21.644Z,2.97
2023-01-01T15:56:30.819Z,2.20
2023-01-01T15:58:35.953Z,1.70
2023-01-01T16:00:42.343Z,1.80
2023-01-01T16:02:48.993Z,1.70
2023-01-01T16:04:55.134Z,1.80
2023-01-01T16:06:59.486Z,1.75
2023-01-01T16:09:05.200Z,2.38
2023-01-01T16:11:09.678Z,2.03
2023-01-01T16:13:14.320Z,2.63
2023-01-01T16:15:17.626Z,2.00
2023-01-01T16:17:21.916Z,2.40
2023-01-01T16:19:25.884Z,1.85
2023-01-01T16:21:32.796Z,2.10
2023-01-01T16:23:35.692Z,1.60
2023-01-01T16:25:38.997Z,1.48
2023-01-01T16:27:42.807Z,2.10
2023-01-01T16:29:54.355Z,1.60
2023-01-01T16:31:57.674Z,1.40
2023-01-01T16:34:00.993Z,1.70
2023-01-01T16:36:04.655Z,2.55
2023-01-01T16:38:07.983Z,1.53
2023-01-01T16:40:11.975Z,1.70
2023-01-01T16:42:15.497Z,1.92
2023-01-01T16:44:18.895Z,1.60
2023-01-01T16:46:24.154Z,1.80
2023-01-01T16:48:27.355Z,1.63
2023-01-01T16:50:30.534Z,1.60
2023-01-01T16:52:34.039Z,1.50
2023-01-01T16:55:43.595Z,1.40
2023-01-01T16:57:48.777Z,1.90
2023-01-01T16:59:51.729Z,1.70
2023-01-01T17:01:56.070Z,1.90
2023-01-01T17:03:59.258Z,1.70
2023-01-01T17:06:05.674Z,2.07
2023-01-01T17:08:08.811Z,1.80
2023-01-01T17:10:13.778Z,1.80
2023-01-01T17:12:16.748Z,2.00
2023-01-01T17:14:19.705Z,2.50
2023-01-01T17:16:27.933Z,2.07
2023-01-01T17:19:04.265Z,2.40
2023-01-01T17:20:57.112Z,1.88
2023-01-01T17:23:00.439Z,1.60
2023-01-01T17:25:05.899Z,1.92
2023-01-01T17:27:08.887Z,1.90
2023-01-01T17:29:13.788Z,1.75
2023-01-01T17:31:21.169Z,1.40
2023-01-01T17:33:24.336Z,1.60
2023-01-01T17:35:33.174Z,2.17
2023-01-01T17:37:38.831Z,1.73
2023-01-01T17:39:42.036Z,1.87
2023-01-01T17:41:48.221Z,2.33
2023-01-01T17:43:52.905Z,2.10
2023-01-01T17:45:56.931Z,1.90
2023-01-01T17:48:00.069Z,2.23
2023-01-01T17:50:03.804Z,2.10
2023-01-01T17:52:08.361Z,2.33
2023-01-01T17:54:13.704Z,2.07
2023-01-01T17:56:18.188Z,2.20
2023-01-01T17:58:21.592Z,2.67
2023-01-01T18:00:26.187Z,2.10
2023-01-01T18:02:30.983Z,2.10
2023-01-01T18:04:34.868Z,2.10
2023-01-01T18:06:42.493Z,2.00
2023-01-01T18:08:54.987Z,2.57
2023-01-01T18:10:58.036Z,2.03
2023-01-01T18:13:01.255Z,2.90
2023-01-01T18:15:04.815Z,3.20
2023-01-01T18:17:07.719Z,3.90
2023-01-01T18:19:10.824Z,2.97
2023-01-01T18:21:19.447Z,3.67
2023-01-01T18:23:22.366Z,2.80
2023-01-01T18:25:26.855Z,3.03
2023-01-01T18:27:30.290Z,3.70
2023-01-01T18:29:33.376Z,3.53
2023-01-01T18:31:36.552Z,2.80
2023-01-01T18:33:39.848Z,3.30
2023-01-01T18:35:44.628Z,3.70
2023-01-01T18:37:48.178Z,3.70
2023-01-01T18:39:51.257Z,4.17
2023-01-01T18:42:08.644Z,4.00
2023-01-01T18:44:18.594Z,3.37
2023-01-01T18:46:23.329Z,3.27
2023-01-01T18:48:26.394Z,3.93
2023-01-01T18:50:31.932Z,3.00
2023-01-01T18:52:34.988Z,3.97
2023-01-01T18:54:38.067Z,3.20
2023-01-01T18:56:41.068Z,3.10
2023-01-01T18:58:46.766Z,3.00
2023-01-01T19:00:51.020Z,3.43
2023-01-01T19:02:57.264Z,2.93
2023-01-01T19:05:15.784Z,3.23
2023-01-01T19:07:18.881Z,4.50
2023-01-01T19:09:24.411Z,3.23
2023-01-01T19:11:27.458Z,3.60
2023-01-01T19:13:33.990Z,3.37
2023-01-01T19:15:38.280Z,3.80
2023-01-01T19:17:41.396Z,3.50
2023-01-01T19:19:45.433Z,3.37
2023-01-01T19:21:52.107Z,3.70
2023-01-01T19:23:56.726Z,3.60
2023-01-01T19:26:03.027Z,3.90
2023-01-01T19:28:39.329Z,4.30
2023-01-01T19:30:43.752Z,3.63
2023-01-01T19:32:47.285Z,2.93
2023-01-01T19:34:50.432Z,3.27
2023-01-01T19:36:53.603Z,3.60
2023-01-01T19:38:56.771Z,2.60
2023-01-01T19:40:59.790Z,3.57
2023-01-01T19:43:03.674Z,3.47
2023-01-01T19:45:08.424Z,3.20
2023-01-01T19:47:12.663Z,3.47
2023-01-01T19:49:15.627Z,3.47
2023-01-01T19:51:19.478Z,3.20
2023-01-01T19:53:22.422Z,3.50
2023-01-01T19:55:26.186Z,4.47
2023-01-01T19:57:29.227Z,3.10
2023-01-01T19:59:33.497Z,3.00
2023-01-01T20:01:36.965Z,3.20
2023-01-01T20:03:58.049Z,2.67
2023-01-01T20:06:01.510Z,3.87
2023-01-01T20:08:04.775Z,3.53
2023-01-01T20:10:08.479Z,2.93
2023-01-01T20:12:12.961Z,3.67
2023-01-01T20:14:15.938Z,3.60
2023-01-01T20:16:18.853Z,4.80
2023-01-01T20:18:21.901Z,3.70
2023-01-01T20:20:26.337Z,4.93
2023-01-01T20:22:28.579Z,3.40
2023-01-01T20:24:37.741Z,3.10
2023-01-01T20:26:43.144Z,2.97
2023-01-01T20:29:04.854Z,3.17
2023-01-01T20:31:07.935Z,3.70
2023-01-01T20:33:13.553Z,3.30
2023-01-01T20:35:37.906Z,2.87
2023-01-01T20:37:41.525Z,3.73
2023-01-01T20:39:44.649Z,3.43
2023-01-01T20:41:47.669Z,3.03
2023-01-01T20:43:50.799Z,3.73
2023-01-01T20:45:53.884Z,4.17
2023-01-01T20:47:56.979Z,3.67
2023-01-01T20:49:59.979Z,3.17
2023-01-01T20:52:02.882Z,3.80
2023-01-01T20:54:07.468Z,4.03
2023-01-01T20:56:10.363Z,4.20
2023-01-01T20:58:13.245Z,4.00
2023-01-01T21:00:16.423Z,3.70
2023-01-01T21:02:19.576Z,3.40
2023-01-01T21:04:22.634Z,3.80
2023-01-01T21:06:25.619Z,3.83
2023-01-01T21:08:28.683Z,4.03
2023-01-01T21:10:33.383Z,4.87
2023-01-01T21:12:37.458Z,4.37
2023-01-01T21:14:43.937Z,3.47
2023-01-01T21:16:47.125Z,4.00
2023-01-01T21:18:50.195Z,3.27
2023-01-01T21:20:53.112Z,3.85
2023-01-01T21:23:02.155Z,4.43
2023-01-01T21:25:49.720Z,3.50
2023-01-01T21:27:44.481Z,3.60
2023-01-01T21:29:50.508Z,3.50
2023-01-01T21:31:57.696Z,3.33
2023-01-01T21:34:03.816Z,4.70
2023-01-01T21:36:15.517Z,4.00
2023-01-01T21:38:22.863Z,4.27
2023-01-01T21:40:42.882Z,3.80
2023-01-01T21:42:47.332Z,3.80
2023-01-01T21:44:51.816Z,3.07
2023-01-01T21:47:01.511Z,3.60
2023-01-01T21:49:14.859Z,3.17
2023-01-01T21:51:20.783Z,3.07
2023-01-01T21:53:27.643Z,3.20
2023-01-01T21:55:50.748Z,3.50
2023-01-01T21:58:20.950Z,3.10
2023-01-01T22:00:27.821Z,3.43
2023-01-01T22:02:36.152Z,2.93
2023-01-01T22:04:41.473Z,3.03
2023-01-01T22:06:46.219Z,2.60
2023-01-01T22:08:49.079Z,3.60
2023-01-01T22:10:52.491Z,2.97
2023-01-01T22:12:58.453Z,2.77
2023-01-01T22:15:30.547Z,3.27
2023-01-01T22:17:37.550Z,3.83
2023-01-01T22:19:42.332Z,3.63
2023-01-01T22:21:45.871Z,2.97
2023-01-01T22:23:49.893Z,4.03
2023-01-01T22:25:53.422Z,2.87
2023-01-01T22:27:58.242Z,3.53
2023-01-01T22:30:29.947Z,3.07
2023-01-01T22:32:34.538Z,2.93
2023-01-01T22:34:37.410Z,3.20
2023-01-01T22:36:41.532Z,3.37
2023-01-01T22:38:44.660Z,3.00
2023-01-01T22:40:50.280Z,3.63
2023-01-01T22:42:53.453Z,2.90
2023-01-01T22:45:03.294Z,3.30
2023-01-01T22:47:10.048Z,2.30
2023-01-01T22:49:20.068Z,3.67
2023-01-01T22:51:24.837Z,2.73
2023-01-01T22:53:28.986Z,3.30
2023-01-01T22:55:31.933Z,2.87
2023-01-01T22:57:34.817Z,2.80
2023-01-01T22:59:37.725Z,3.47
2023-01-01T23:01:42.367Z,3.00
2023-01-01T23:03:49.711Z,2.87
2023-01-01T23:05:55.485Z,2.87
2023-01-01T23:07:58.369Z,3.30
2023-01-01T23:10:01.391Z,3.30
2023-01-01T23:12:04.475Z,3.53
2023-01-01T23:14:25.462Z,3.30
2023-01-01T23:16:28.643Z,3.70
2023-01-01T23:18:34.485Z,2.50
2023-01-01T23:20:37.366Z,3.50
2023-01-01T23:22:42.566Z,2.57
2023-01-01T23:24:46.149Z,2.90
2023-01-01T23:26:49.574Z,3.17
2023-01-01T23:28:53.209Z,3.27
2023-01-01T23:30:56.881Z,3.57
2023-01-01T23:33:00.033Z,3.23
2023-01-01T23:35:04.699Z,3.40
2023-01-01T23:37:07.890Z,3.10
2023-01-01T23:39:11.943Z,2.90
2023-01-01T23:41:14.783Z,2.97
2023-01-01T23:43:17.903Z,2.60
2023-01-01T23:45:20.814Z,3.43
2023-01-01T23:47:23.840Z,2.33
2023-01-01T23:49:26.837Z,2.80
2023-01-01T23:51:31.098Z,2.77
2023-01-01T23:53:33.972Z,2.80
2023-01-01T23:55:37.175Z,3.50
2023-01-01T23:57:40.371Z,2.63
2023-01-01T23:59:43.381Z,2.37
